Terminal Aerodrome Forecast
Issued by NWS Duluth, MN

Home | Current Version | Previous Version | Text Only | Print | Product List | Glossary On
Versions: 1 2 3 4 5 6 7 8 9 10 11 12 13 14 15 16 17 18 19 20 21 22 23 24 25
000
FTUS43 KDLH 310500
TAFINL
TAF
KINL 310532Z 3106/0106 22003KT P6SM OVC015
     FM310800 32010KT P6SM OVC012
     FM311100 34011G18KT P6SM -SHSN SCT025 BKN040
     FM312200 01008G18KT P6SM -SHSN SCT010 BKN035
     FM010100 02006KT P6SM BKN025=

USA.gov is the U.S. government's official web portal to all federal, state and local government web resources and services.